Time;durP1;ratioP1;P1;durP2;ratioP2;P2;SDS_P1;SDS_P2;PMS_P1;PMS_P2;Temp;Humidity;BMP_temperature;BMP_pressure;BME280_temperature;BME280_humidity;BME280_pressure;Samples;Min_cycle;Max_cycle;Signal;HPM_P1;HPM_P2
2020/12/23 00:00:49;;;;;;;;;;;;;;;-144.28;100.00;59960.28;5049895;28;20543;-74
2020/12/23 00:03:16;;;;;;;;;;;;;;;-144.28;100.00;59960.28;5051523;28;19963;-74
2020/12/23 00:05:42;;;;;;;;;;;;;;;-144.28;100.00;59960.28;5059586;28;20294;-74
2020/12/23 00:08:08;;;;;;;;;;;;;;;-144.28;100.00;59960.28;5067433;28;20446;-74
2020/12/23 00:10:35;;;;;;;;;;;;;;;-144.28;100.00;59960.28;5046848;28;20010;-74
2020/12/23 00:13:01;;;;;;;;;;;;;;;-144.28;100.00;59960.28;5049504;28;19929;-74
2020/12/23 00:15:28;;;;;;;;;;;;;;;-144.28;100.00;59960.28;5069610;28;19963;-74
2020/12/23 00:17:54;;;;;;;;;;;;;;;-144.28;100.00;59960.28;5069705;28;20452;-73
2020/12/23 00:20:21;;;;;;;;;;;;;;;-144.28;100.00;59960.28;5062784;28;20447;-73
2020/12/23 00:22:47;;;;;;;;;;;;;;;-144.28;100.00;59960.28;5048266;28;20023;-73
2020/12/23 00:25:13;;;;;;;;;;;;;;;-144.28;100.00;59960.28;5071139;28;19960;-74
2020/12/23 00:27:39;;;;;;;;;;;;;;;-144.28;100.00;59960.28;5063534;28;20288;-73
2020/12/23 00:30:06;;;;;;;;;;;;;;;-144.28;100.00;59960.28;5070691;28;20601;-73
2020/12/23 00:32:33;;;;;;;;;;;;;;;-144.28;100.00;59960.28;5070419;28;19932;-74
2020/12/23 00:34:59;;;;;;;;;;;;;;;-144.28;100.00;59960.28;5066417;28;19928;-73
2020/12/23 00:37:25;;;;;;;;;;;;;;;-144.28;100.00;59960.28;5071029;28;20377;-74
2020/12/23 00:39:51;;;;;;;;;;;;;;;-144.28;100.00;59960.28;5065011;28;19964;-74
2020/12/23 00:42:20;;;;;;;;;;;;;;;-144.28;100.00;59960.28;5063954;28;19979;-74
2020/12/23 00:44:46;;;;;;;;;;;;;;;-144.28;100.00;59960.28;5068912;28;20009;-74
2020/12/23 00:47:12;;;;;;;;;;;;;;;-144.28;100.00;59960.28;5070696;28;19972;-74
2020/12/23 00:49:39;;;;;;;;;;;;;;;-144.28;100.00;59960.28;5069246;28;19924;-74
2020/12/23 00:52:06;;;;;;;;;;;;;;;-144.28;100.00;59960.28;5068509;28;19928;-74
2020/12/23 00:54:32;;;;;;;;;;;;;;;-144.28;100.00;59960.28;5059735;28;19959;-73
2020/12/23 00:56:58;;;;;;;;;;;;;;;-144.28;100.00;59960.28;5045586;28;19933;-74
2020/12/23 00:59:24;;;;;;;;;;;;;;;-144.28;100.00;59960.28;5070696;28;19967;-74
2020/12/23 01:01:56;;;;;;;;;;;;;;;-144.28;100.00;59960.28;5068256;28;19932;-74
2020/12/23 01:04:22;;;;;;;;;;;;;;;-144.28;100.00;59960.28;5070390;28;20018;-74
2020/12/23 01:06:49;;;;;;;;;;;;;;;-144.28;100.00;59960.28;5064322;28;19968;-74
2020/12/23 01:09:15;;;;;;;;;;;;;;;-144.28;100.00;59960.28;5070497;28;19975;-74
2020/12/23 01:11:41;;;;;;;;;;;;;;;-144.28;100.00;59960.28;5047659;28;19964;-74
2020/12/23 01:14:08;;;;;;;;;;;;;;;-144.28;100.00;59960.28;5063261;28;20401;-74
2020/12/23 01:16:34;;;;;;;;;;;;;;;-144.28;100.00;59960.28;5069806;28;20439;-74
2020/12/23 01:19:00;;;;;;;;;;;;;;;-144.28;100.00;59960.28;5068908;28;19924;-74
2020/12/23 01:21:26;;;;;;;;;;;;;;;-144.28;100.00;59960.28;5069857;28;20389;-74
2020/12/23 01:23:53;;;;;;;;;;;;;;;-144.28;100.00;59960.28;5064594;28;19932;-74
2020/12/23 01:26:19;;;;;;;;;;;;;;;-144.28;100.00;59960.28;5066312;28;20333;-74
2020/12/23 01:28:46;;;;;;;;;;;;;;;-144.28;100.00;59960.28;5061046;28;20339;-74
2020/12/23 01:31:12;;;;;;;;;;;;;;;-144.28;100.00;59960.28;5070419;28;19991;-74
2020/12/23 01:33:38;;;;;;;;;;;;;;;-144.28;100.00;59960.28;5068670;28;20385;-74
2020/12/23 01:36:06;;;;;;;;;;;;;;;-144.28;100.00;59960.28;5069049;28;19971;-74
2020/12/23 01:38:32;;;;;;;;;;;;;;;-144.28;100.00;59960.28;5065768;28;19925;-73
2020/12/23 01:41:00;;;;;;;;;;;;;;;-144.28;100.00;59960.28;5068420;28;19975;-73
2020/12/23 01:43:27;;;;;;;;;;;;;;;-144.28;100.00;59960.28;5058917;28;20021;-74
2020/12/23 01:45:53;;;;;;;;;;;;;;;-144.28;100.00;59960.28;5067893;28;19978;-73
2020/12/23 01:48:21;;;;;;;;;;;;;;;-144.28;100.00;59960.28;5071602;28;19924;-74
2020/12/23 01:50:47;;;;;;;;;;;;;;;-144.28;100.00;59960.28;5072671;28;20377;-73
2020/12/23 01:53:15;;;;;;;;;;;;;;;-144.28;100.00;59960.28;5069979;28;19954;-74
2020/12/23 01:55:44;;;;;;;;;;;;;;;-144.28;100.00;59960.28;5071042;28;20009;-74
2020/12/23 01:58:11;;;;;;;;;;;;;;;-144.28;100.00;59960.28;5066669;28;19940;-74
2020/12/23 02:00:38;;;;;;;;;;;;;;;-144.28;100.00;59960.28;5062055;28;19956;-74
2020/12/23 02:03:05;;;;;;;;;;;;;;;-144.28;100.00;59960.28;5069069;28;20373;-74
2020/12/23 02:05:31;;;;;;;;;;;;;;;-144.28;100.00;59960.28;5069376;28;19947;-75
2020/12/23 02:07:57;;;;;;;;;;;;;;;-144.28;100.00;59960.28;5064565;28;19932;-74
2020/12/23 02:10:24;;;;;;;;;;;;;;;-144.28;100.00;59960.28;5069591;28;19963;-74
2020/12/23 02:12:51;;;;;;;;;;;;;;;-144.28;100.00;59960.28;5063184;28;19940;-74
2020/12/23 02:15:18;;;;;;;;;;;;;;;-144.28;100.00;59960.28;5050258;28;19959;-74
2020/12/23 02:17:45;;;;;;;;;;;;;;;-144.28;100.00;59960.28;5067643;28;20017;-75
2020/12/23 02:20:12;;;;;;;;;;;;;;;-144.28;100.00;59960.28;5069103;28;20473;-74
2020/12/23 02:22:39;;;;;;;;;;;;;;;-144.28;100.00;59960.28;5050637;28;20293;-74
2020/12/23 02:25:06;;;;;;;;;;;;;;;-144.28;100.00;59960.28;5065216;28;20569;-74
2020/12/23 02:27:32;;;;;;;;;;;;;;;-144.28;100.00;59960.28;5068080;28;19968;-74
2020/12/23 02:29:59;;;;;;;;;;;;;;;-144.28;100.00;59960.28;5058029;28;20416;-74
2020/12/23 02:32:26;;;;;;;;;;;;;;;-144.28;100.00;59960.28;5069075;28;19990;-74
2020/12/23 02:34:53;;;;;;;;;;;;;;;-144.28;100.00;59960.28;5067156;28;20722;-74
2020/12/23 02:37:20;;;;;;;;;;;;;;;-144.28;100.00;59960.28;5073512;28;19967;-73
2020/12/23 02:39:48;;;;;;;;;;;;;;;-144.28;100.00;59960.28;5070750;28;19924;-73
2020/12/23 02:42:15;;;;;;;;;;;;;;;-144.28;100.00;59960.28;5070884;28;19924;-74
2020/12/23 02:44:41;;;;;;;;;;;;;;;-144.28;100.00;59960.28;5070412;28;19952;-74
2020/12/23 02:47:09;;;;;;;;;;;;;;;-144.28;100.00;59960.28;5068697;28;19935;-74
2020/12/23 02:49:35;;;;;;;;;;;;;;;-144.28;100.00;59960.28;5075037;28;19924;-74
2020/12/23 02:52:02;;;;;;;;;;;;;;;-144.28;100.00;59960.28;5077303;28;20028;-74
2020/12/23 02:54:28;;;;;;;;;;;;;;;-144.28;100.00;59960.28;5075327;28;20066;-74
2020/12/23 02:56:55;;;;;;;;;;;;;;;-144.28;100.00;59960.28;5070133;28;19979;-74
2020/12/23 02:59:21;;;;;;;;;;;;;;;-144.28;100.00;59960.28;5067710;28;19925;-74
2020/12/23 03:01:47;;;;;;;;;;;;;;;-144.28;100.00;59960.28;5057483;28;20429;-74
2020/12/23 03:04:13;;;;;;;;;;;;;;;-144.28;100.00;59960.28;5075457;28;20450;-74
2020/12/23 03:06:40;;;;;;;;;;;;;;;-144.28;100.00;59960.28;5074252;28;20305;-74
2020/12/23 03:09:07;;;;;;;;;;;;;;;-144.28;100.00;59960.28;5074968;28;20023;-74
2020/12/23 03:11:33;;;;;;;;;;;;;;;-144.28;100.00;59960.28;5072138;28;20022;-74
2020/12/23 03:14:00;;;;;;;;;;;;;;;-144.28;100.00;59960.28;5055821;28;19925;-74
2020/12/23 03:16:26;;;;;;;;;;;;;;;-144.28;100.00;59960.28;5054237;28;19925;-74
2020/12/23 03:18:53;;;;;;;;;;;;;;;-144.28;100.00;59960.28;5066021;28;20219;-74
2020/12/23 03:21:20;;;;;;;;;;;;;;;-144.28;100.00;59960.28;5075332;28;19924;-74
2020/12/23 03:23:46;;;;;;;;;;;;;;;-144.28;100.00;59960.28;5073368;28;20019;-74
2020/12/23 03:26:13;;;;;;;;;;;;;;;-144.28;100.00;59960.28;5075154;28;20011;-74
2020/12/23 03:28:39;;;;;;;;;;;;;;;-144.28;100.00;59960.28;5060927;28;19959;-74
2020/12/23 03:31:06;;;;;;;;;;;;;;;-144.28;100.00;59960.28;5055989;28;20049;-74
2020/12/23 03:33:32;;;;;;;;;;;;;;;-144.28;100.00;59960.28;5066826;28;19964;-74
2020/12/23 03:35:59;;;;;;;;;;;;;;;-144.28;100.00;59960.28;5054116;28;19931;-74
2020/12/23 03:38:25;;;;;;;;;;;;;;;-144.28;100.00;59960.28;5055567;28;19952;-74
2020/12/23 03:40:52;;;;;;;;;;;;;;;-144.28;100.00;59960.28;5053076;28;20442;-74
2020/12/23 03:43:18;;;;;;;;;;;;;;;-144.28;100.00;59960.28;5058413;28;19932;-73
2020/12/23 03:45:44;;;;;;;;;;;;;;;-144.28;100.00;59960.28;5073108;28;19974;-74
2020/12/23 03:48:11;;;;;;;;;;;;;;;-144.28;100.00;59960.28;5056849;28;19990;-74
2020/12/23 03:50:38;;;;;;;;;;;;;;;-144.28;100.00;59960.28;5070823;28;19935;-74
2020/12/23 03:53:04;;;;;;;;;;;;;;;-144.28;100.00;59960.28;5071252;28;20006;-75
2020/12/23 03:55:30;;;;;;;;;;;;;;;-144.28;100.00;59960.28;5071204;28;20408;-74
2020/12/23 03:57:57;;;;;;;;;;;;;;;-144.28;100.00;59960.28;5067179;28;19995;-74
2020/12/23 04:00:23;;;;;;;;;;;;;;;-144.28;100.00;59960.28;5071735;28;19967;-74
2020/12/23 04:02:49;;;;;;;;;;;;;;;-144.28;100.00;59960.28;5066451;28;19988;-74
2020/12/23 04:05:16;;;;;;;;;;;;;;;-144.28;100.00;59960.28;5052974;28;19967;-74
2020/12/23 04:07:42;;;;;;;;;;;;;;;-144.28;100.00;59960.28;5054519;28;19964;-75
2020/12/23 04:10:09;;;;;;;;;;;;;;;-144.28;100.00;59960.28;5068279;28;20401;-75
2020/12/23 04:12:36;;;;;;;;;;;;;;;-144.28;100.00;59960.28;5072878;28;20023;-74
2020/12/23 04:15:03;;;;;;;;;;;;;;;-144.28;100.00;59960.28;5069053;28;19925;-74
2020/12/23 04:17:30;;;;;;;;;;;;;;;-144.28;100.00;59960.28;5073003;28;19997;-74
2020/12/23 04:19:56;;;;;;;;;;;;;;;-144.28;100.00;59960.28;5055015;28;20003;-74
2020/12/23 04:22:23;;;;;;;;;;;;;;;-144.28;100.00;59960.28;5071489;28;19931;-74
2020/12/23 04:24:49;;;;;;;;;;;;;;;-144.28;100.00;59960.28;5069904;28;19974;-74
2020/12/23 04:27:15;;;;;;;;;;;;;;;-144.28;100.00;59960.28;5071338;28;20373;-73
2020/12/23 04:29:41;;;;;;;;;;;;;;;-144.28;100.00;59960.28;5067924;28;19978;-74
2020/12/23 04:32:08;;;;;;;;;;;;;;;-144.28;100.00;59960.28;5070195;28;19950;-74
2020/12/23 04:34:34;;;;;;;;;;;;;;;-144.28;100.00;59960.28;5056694;28;19964;-74
2020/12/23 04:37:00;;;;;;;;;;;;;;;-144.28;100.00;59960.28;5050138;28;20630;-74
2020/12/23 04:39:27;;;;;;;;;;;;;;;-144.28;100.00;59960.28;5050967;28;19963;-74
2020/12/23 04:41:53;;;;;;;;;;;;;;;-144.28;100.00;59960.28;5049177;28;19924;-74
2020/12/23 04:44:20;;;;;;;;;;;;;;;-144.28;100.00;59960.28;5051144;28;19983;-74
2020/12/23 04:46:47;;;;;;;;;;;;;;;-144.28;100.00;59960.28;5055695;28;19955;-74
2020/12/23 04:49:13;;;;;;;;;;;;;;;-144.28;100.00;59960.28;5052811;28;19971;-75
2020/12/23 04:51:40;;;;;;;;;;;;;;;-144.28;100.00;59960.28;5044551;28;19952;-74
2020/12/23 04:54:08;;;;;;;;;;;;;;;-144.28;100.00;59960.28;5071972;28;19925;-74
2020/12/23 04:56:35;;;;;;;;;;;;;;;-144.28;100.00;59960.28;5069510;28;19968;-74
2020/12/23 04:59:03;;;;;;;;;;;;;;;-144.28;100.00;59960.28;5069257;28;19925;-74
2020/12/23 05:01:29;;;;;;;;;;;;;;;-144.28;100.00;59960.28;5066691;28;19959;-74
2020/12/23 05:03:56;;;;;;;;;;;;;;;-144.28;100.00;59960.28;5069214;28;19924;-74
2020/12/23 05:06:22;;;;;;;;;;;;;;;-144.28;100.00;59960.28;5063972;28;20025;-74
2020/12/23 05:08:49;;;;;;;;;;;;;;;-144.28;100.00;59960.28;5068187;28;19963;-74
2020/12/23 05:11:16;;;;;;;;;;;;;;;-144.28;100.00;59960.28;5070211;28;20304;-74
2020/12/23 05:13:43;;;;;;;;;;;;;;;-144.28;100.00;59960.28;5068919;28;19964;-75
2020/12/23 05:16:10;;;;;;;;;;;;;;;-144.28;100.00;59960.28;5070287;28;19956;-74
2020/12/23 05:18:36;;;;;;;;;;;;;;;-144.28;100.00;59960.28;5065081;28;20394;-75
2020/12/23 05:21:14;;;;;;;;;;;;;;;-144.28;100.00;59960.28;5063084;28;20085;-75
2020/12/23 05:23:40;;;;;;;;;;;;;;;-144.28;100.00;59960.28;5068814;28;19925;-75
2020/12/23 05:26:07;;;;;;;;;;;;;;;-144.28;100.00;59960.28;5069760;28;19963;-75
2020/12/23 05:28:33;;;;;;;;;;;;;;;-144.28;100.00;59960.28;5069227;28;20447;-75
2020/12/23 05:31:01;;;;;;;;;;;;;;;-144.28;100.00;59960.28;5068514;28;20587;-75
2020/12/23 05:33:27;;;;;;;;;;;;;;;-144.28;100.00;59960.28;5066588;28;20389;-74
2020/12/23 05:35:55;;;;;;;;;;;;;;;-144.28;100.00;59960.28;5048174;28;20039;-75
2020/12/23 05:38:21;;;;;;;;;;;;;;;-144.28;100.00;59960.28;5059331;28;20020;-75
2020/12/23 05:40:47;;;;;;;;;;;;;;;-144.28;100.00;59960.28;5067406;28;20455;-74
2020/12/23 05:43:14;;;;;;;;;;;;;;;-144.28;100.00;59960.28;5069462;28;19968;-74
2020/12/23 05:45:41;;;;;;;;;;;;;;;-144.28;100.00;59960.28;5068460;28;20007;-74
2020/12/23 05:48:12;;;;;;;;;;;;;;;-144.28;100.00;59960.28;5065770;28;19963;-74
2020/12/23 05:50:39;;;;;;;;;;;;;;;-144.28;100.00;59960.28;5068245;28;19974;-74
2020/12/23 05:53:10;;;;;;;;;;;;;;;-144.28;100.00;59960.28;5062574;28;19956;-74
2020/12/23 05:55:36;;;;;;;;;;;;;;;-144.28;100.00;59960.28;5068420;28;19975;-74
2020/12/23 05:58:02;;;;;;;;;;;;;;;-144.28;100.00;59960.28;5068410;28;19982;-74
2020/12/23 06:00:29;;;;;;;;;;;;;;;-144.28;100.00;59960.28;5069568;28;19959;-75
2020/12/23 06:03:03;;;;;;;;;;;;;;;-144.28;100.00;59960.28;5067723;28;19925;-74
2020/12/23 06:05:33;;;;;;;;;;;;;;;-144.28;100.00;59960.28;5065695;28;19959;-75
2020/12/23 06:08:03;;;;;;;;;;;;;;;-144.28;100.00;59960.28;5061331;28;19932;-74
2020/12/23 06:10:34;;;;;;;;;;;;;;;-144.28;100.00;59960.28;5050916;28;19925;-74
2020/12/23 06:13:09;;;;;;;;;;;;;;;-144.28;100.00;59960.28;5067907;28;19978;-74
2020/12/23 06:15:39;;;;;;;;;;;;;;;-144.28;100.00;59960.28;5068525;28;20312;-74
2020/12/23 06:18:10;;;;;;;;;;;;;;;-144.28;100.00;59960.28;5068610;28;19971;-74
2020/12/23 06:20:39;;;;;;;;;;;;;;;-144.28;100.00;59960.28;5064438;28;19955;-74
2020/12/23 06:23:06;;;;;;;;;;;;;;;-144.28;100.00;59960.28;5061785;28;19932;-74
2020/12/23 06:25:32;;;;;;;;;;;;;;;-144.28;100.00;59960.28;5068254;28;19974;-75
2020/12/23 06:28:00;;;;;;;;;;;;;;;-144.28;100.00;59960.28;5067666;28;20350;-74
2020/12/23 06:30:28;;;;;;;;;;;;;;;-144.28;100.00;59960.28;5069136;28;19960;-74
2020/12/23 06:32:59;;;;;;;;;;;;;;;-144.28;100.00;59960.28;5067990;28;19987;-74
2020/12/23 06:35:26;;;;;;;;;;;;;;;-144.28;100.00;59960.28;5066194;28;19987;-75
2020/12/23 06:37:53;;;;;;;;;;;;;;;-144.28;100.00;59960.28;5067022;28;19932;-74
2020/12/23 06:40:20;;;;;;;;;;;;;;;-144.28;100.00;59960.28;5061719;28;19964;-74
2020/12/23 06:42:46;;;;;;;;;;;;;;;-144.28;100.00;59960.28;5066943;28;19924;-75
2020/12/23 06:45:13;;;;;;;;;;;;;;;-144.28;100.00;59960.28;5069106;28;19932;-74
2020/12/23 06:47:40;;;;;;;;;;;;;;;-144.28;100.00;59960.28;5067395;28;19964;-74
2020/12/23 06:50:13;;;;;;;;;;;;;;;-144.28;100.00;59960.28;5064910;28;20397;-75
2020/12/23 06:52:40;;;;;;;;;;;;;;;-144.28;100.00;59960.28;5050002;28;20385;-74
2020/12/23 06:55:08;;;;;;;;;;;;;;;-144.28;100.00;59960.28;5071876;28;20424;-74
2020/12/23 06:57:49;;;;;;;;;;;;;;;-144.28;100.00;59960.28;5067649;28;19982;-74
2020/12/23 07:00:32;;;;;;;;;;;;;;;-144.28;100.00;59960.28;5068919;28;19924;-74
2020/12/23 07:02:59;;;;;;;;;;;;;;;-144.28;100.00;59960.28;5068072;28;20421;-74
2020/12/23 07:05:32;;;;;;;;;;;;;;;-144.28;100.00;59960.28;5068154;28;20015;-75
2020/12/23 07:07:59;;;;;;;;;;;;;;;-144.28;100.00;59960.28;5064627;28;20285;-74
2020/12/23 07:10:28;;;;;;;;;;;;;;;-144.28;100.00;59960.28;5061400;28;19959;-74
2020/12/23 07:12:55;;;;;;;;;;;;;;;-144.28;100.00;59960.28;5066972;28;19936;-74
2020/12/23 07:15:23;;;;;;;;;;;;;;;-144.28;100.00;59960.28;5068832;28;19964;-74
2020/12/23 07:17:50;;;;;;;;;;;;;;;-144.28;100.00;59960.28;5049107;28;19928;-74
2020/12/23 07:20:18;;;;;;;;;;;;;;;-144.28;100.00;59960.28;5068826;28;20022;-74
2020/12/23 07:22:47;;;;;;;;;;;;;;;-144.28;100.00;59960.28;5064487;28;20023;-74
2020/12/23 07:25:18;;;;;;;;;;;;;;;-144.28;100.00;59960.28;5072178;28;19925;-74
2020/12/23 07:27:46;;;;;;;;;;;;;;;-144.28;100.00;59960.28;5046805;28;19960;-74
2020/12/23 07:30:13;;;;;;;;;;;;;;;-144.28;100.00;59960.28;5052205;28;20361;-75
2020/12/23 07:32:40;;;;;;;;;;;;;;;-144.28;100.00;59960.28;5048434;28;20020;-74
2020/12/23 07:35:07;;;;;;;;;;;;;;;-144.28;100.00;59960.28;5068996;28;19924;-74
2020/12/23 07:37:39;;;;;;;;;;;;;;;-144.28;100.00;59960.28;5053903;28;19959;-75
2020/12/23 07:40:13;;;;;;;;;;;;;;;-144.28;100.00;59960.28;5064531;28;19932;-75
2020/12/23 07:42:39;;;;;;;;;;;;;;;-144.28;100.00;59960.28;5056351;28;19993;-75
2020/12/23 07:45:06;;;;;;;;;;;;;;;-144.28;100.00;59960.28;5062827;28;20006;-75
2020/12/23 07:47:32;;;;;;;;;;;;;;;-144.28;100.00;59960.28;5071021;28;19971;-75
2020/12/23 07:49:59;;;;;;;;;;;;;;;-144.28;100.00;59960.28;5069915;28;19928;-73
2020/12/23 07:52:26;;;;;;;;;;;;;;;-144.28;100.00;59960.28;5071559;28;20011;-74
2020/12/23 07:54:52;;;;;;;;;;;;;;;-144.28;100.00;59960.28;5061875;28;19960;-74
2020/12/23 07:57:28;;;;;;;;;;;;;;;-144.28;100.00;59960.28;5056798;28;19963;-75
2020/12/23 08:00:03;;;;;;;;;;;;;;;-144.28;100.00;59960.28;5069477;28;20267;-73
2020/12/23 08:02:31;;;;;;;;;;;;;;;-144.28;100.00;59960.28;5040985;28;20385;-74
2020/12/23 08:04:57;;;;;;;;;;;;;;;-144.28;100.00;59960.28;5068873;28;19982;-74
2020/12/23 08:07:24;;;;;;;;;;;;;;;-144.28;100.00;59960.28;5071633;28;19924;-74
2020/12/23 08:09:50;;;;;;;;;;;;;;;-144.28;100.00;59960.28;5060625;28;19999;-74
2020/12/23 08:12:20;;;;;;;;;;;;;;;-144.28;100.00;59960.28;5056989;28;20026;-74
2020/12/23 08:14:46;;;;;;;;;;;;;;;-144.28;100.00;59960.28;5044780;28;19925;-73
2020/12/23 08:17:19;;;;;;;;;;;;;;;-144.28;100.00;59960.28;5051453;28;19968;-73
2020/12/23 08:19:47;;;;;;;;;;;;;;;-144.28;100.00;59960.28;5031515;28;20405;-74
2020/12/23 08:22:13;;;;;;;;;;;;;;;-144.28;100.00;59960.28;5051465;28;19970;-75
2020/12/23 08:24:40;;;;;;;;;;;;;;;-144.28;100.00;59960.28;5060332;28;20278;-74
2020/12/23 08:27:06;;;;;;;;;;;;;;;-144.28;100.00;59960.28;5048993;28;20397;-74
2020/12/23 08:29:32;;;;;;;;;;;;;;;-144.28;100.00;59960.28;5066214;28;20342;-75
2020/12/23 08:32:01;;;;;;;;;;;;;;;-144.28;100.00;59960.28;5050276;28;20694;-74
2020/12/23 08:34:27;;;;;;;;;;;;;;;-144.28;100.00;59960.28;5060065;28;19978;-74
2020/12/23 08:36:54;;;;;;;;;;;;;;;-144.28;100.00;59960.28;5069523;28;19924;-74
2020/12/23 08:39:24;;;;;;;;;;;;;;;-144.28;100.00;59960.28;5070500;28;19972;-75
2020/12/23 08:41:50;;;;;;;;;;;;;;;-144.28;100.00;59960.28;5054459;28;19990;-74
2020/12/23 08:44:21;;;;;;;;;;;;;;;-144.28;100.00;59960.28;5064997;28;19955;-75
2020/12/23 08:46:47;;;;;;;;;;;;;;;-144.28;100.00;59960.28;5065742;28;19935;-75
2020/12/23 08:49:14;;;;;;;;;;;;;;;-144.28;100.00;59960.28;5052650;28;19932;-74
2020/12/23 08:51:40;;;;;;;;;;;;;;;-144.28;100.00;59960.28;5054370;28;19951;-74
2020/12/23 08:54:15;;;;;;;;;;;;;;;-144.28;100.00;59960.28;5050763;28;20358;-73
2020/12/23 08:56:48;;;;;;;;;;;;;;;-144.28;100.00;59960.28;5060942;28;19960;-74
2020/12/23 08:59:14;;;;;;;;;;;;;;;-144.28;100.00;59960.28;5061296;28;19924;-74
2020/12/23 09:01:40;;;;;;;;;;;;;;;-144.28;100.00;59960.28;5067099;28;19978;-73
2020/12/23 09:04:08;;;;;;;;;;;;;;;-144.28;100.00;59960.28;5055659;28;19924;-75
2020/12/23 09:06:35;;;;;;;;;;;;;;;-144.28;100.00;59960.28;5052871;28;19974;-75
2020/12/23 09:09:08;;;;;;;;;;;;;;;-144.28;100.00;59960.28;5069644;28;20073;-75
2020/12/23 09:11:41;;;;;;;;;;;;;;;-144.28;100.00;59960.28;5064058;28;20385;-74
2020/12/23 09:14:13;;;;;;;;;;;;;;;-144.28;100.00;59960.28;5064803;28;19932;-75
2020/12/23 09:16:39;;;;;;;;;;;;;;;-144.28;100.00;59960.28;5069880;28;20418;-75
2020/12/23 09:19:05;;;;;;;;;;;;;;;-144.28;100.00;59960.28;5090066;28;19931;-74
2020/12/23 09:21:31;;;;;;;;;;;;;;;-144.28;100.00;59960.28;5058669;28;19964;-75
2020/12/23 09:24:05;;;;;;;;;;;;;;;-144.28;100.00;59960.28;5054597;28;20436;-74
2020/12/23 09:26:31;;;;;;;;;;;;;;;-144.28;100.00;59960.28;5068074;28;19925;-75
2020/12/23 09:29:01;;;;;;;;;;;;;;;-144.28;100.00;59960.28;5062688;28;20362;-74
2020/12/23 09:31:27;;;;;;;;;;;;;;;-144.28;100.00;59960.28;5055865;28;19971;-75
2020/12/23 09:33:54;;;;;;;;;;;;;;;-144.28;100.00;59960.28;5051569;28;19931;-75
2020/12/23 09:36:27;;;;;;;;;;;;;;;-144.28;100.00;59960.28;5059866;28;19982;-75
2020/12/23 09:38:53;;;;;;;;;;;;;;;-144.28;100.00;59960.28;5068251;28;19925;-74
2020/12/23 09:41:19;;;;;;;;;;;;;;;-144.28;100.00;59960.28;5069750;28;19959;-75
2020/12/23 09:43:49;;;;;;;;;;;;;;;-144.28;100.00;59960.28;5057608;28;19925;-74
2020/12/23 09:46:16;;;;;;;;;;;;;;;-144.28;100.00;59960.28;5053471;28;19960;-75
2020/12/23 09:48:46;;;;;;;;;;;;;;;-144.28;100.00;59960.28;5048232;28;20453;-74
2020/12/23 09:51:12;;;;;;;;;;;;;;;-144.28;100.00;59960.28;5051822;28;19973;-74
2020/12/23 09:53:38;;;;;;;;;;;;;;;-144.28;100.00;59960.28;5061331;28;19963;-74
2020/12/23 09:56:05;;;;;;;;;;;;;;;-144.28;100.00;59960.28;5067711;28;20098;-74
2020/12/23 09:58:31;;;;;;;;;;;;;;;-144.28;100.00;59960.28;5064074;28;19972;-73
2020/12/23 10:00:57;;;;;;;;;;;;;;;-144.28;100.00;59960.28;5050046;28;20404;-74
2020/12/23 10:03:24;;;;;;;;;;;;;;;-144.28;100.00;59960.28;5069738;28;20023;-72
2020/12/23 10:05:51;;;;;;;;;;;;;;;-144.28;100.00;59960.28;5071307;28;19986;-73
2020/12/23 10:08:17;;;;;;;;;;;;;;;-144.28;100.00;59960.28;5071901;28;20023;-73
2020/12/23 10:10:43;;;;;;;;;;;;;;;-144.28;100.00;59960.28;5049708;28;19925;-73
2020/12/23 10:13:10;;;;;;;;;;;;;;;-144.28;100.00;59960.28;5053203;28;19956;-73
2020/12/23 10:15:36;;;;;;;;;;;;;;;-144.28;100.00;59960.28;5054832;28;19925;-73
2020/12/23 10:18:03;;;;;;;;;;;;;;;-144.28;100.00;59960.28;5062813;28;20321;-74
2020/12/23 10:20:30;;;;;;;;;;;;;;;-144.28;100.00;59960.28;5048997;28;19967;-74
2020/12/23 10:22:56;;;;;;;;;;;;;;;-144.28;100.00;59960.28;5047435;28;19925;-74
2020/12/23 10:25:22;;;;;;;;;;;;;;;-144.28;100.00;59960.28;5056733;28;19972;-74
2020/12/23 10:27:49;;;;;;;;;;;;;;;-144.28;100.00;59960.28;5056900;28;19963;-74
2020/12/23 10:30:15;;;;;;;;;;;;;;;-144.28;100.00;59960.28;5047072;28;19972;-74
2020/12/23 10:32:41;;;;;;;;;;;;;;;-144.28;100.00;59960.28;5060840;28;19963;-74
2020/12/23 10:35:08;;;;;;;;;;;;;;;-144.28;100.00;59960.28;5066029;28;19924;-73
2020/12/23 10:37:35;;;;;;;;;;;;;;;-144.28;100.00;59960.28;5069352;28;19925;-75
2020/12/23 10:40:02;;;;;;;;;;;;;;;-144.28;100.00;59960.28;5062041;28;19978;-74
2020/12/23 10:42:28;;;;;;;;;;;;;;;-144.28;100.00;59960.28;5057156;28;19928;-75
2020/12/23 10:44:54;;;;;;;;;;;;;;;-144.28;100.00;59960.28;5057428;28;19928;-74
2020/12/23 10:47:21;;;;;;;;;;;;;;;-144.28;100.00;59960.28;5053000;28;19960;-73
2020/12/23 10:49:49;;;;;;;;;;;;;;;-144.28;100.00;59960.28;5044198;28;19925;-73
2020/12/23 10:52:15;;;;;;;;;;;;;;;-144.28;100.00;59960.28;5067845;28;20419;-74
2020/12/23 10:54:42;;;;;;;;;;;;;;;-144.28;100.00;59960.28;5067805;28;20027;-74
2020/12/23 10:57:08;;;;;;;;;;;;;;;-144.28;100.00;59960.28;5061315;28;19933;-73
2020/12/23 10:59:34;;;;;;;;;;;;;;;-144.28;100.00;59960.28;5075732;28;19925;-79
2020/12/23 11:02:01;;;;;;;;;;;;;;;-144.28;100.00;59960.28;5047166;28;19932;-81
2020/12/23 11:04:27;;;;;;;;;;;;;;;-144.28;100.00;59960.28;5063813;28;19975;-79
2020/12/23 11:06:54;;;;;;;;;;;;;;;-144.28;100.00;59960.28;5063842;28;20401;-77
2020/12/23 11:09:20;;;;;;;;;;;;;;;-144.28;100.00;59960.28;5078121;28;19925;-79
2020/12/23 11:11:50;;;;;;;;;;;;;;;-144.28;100.00;59960.28;5076900;28;19925;-80
2020/12/23 11:14:16;;;;;;;;;;;;;;;-144.28;100.00;59960.28;5079102;28;20369;-79
2020/12/23 11:16:42;;;;;;;;;;;;;;;-144.28;100.00;59960.28;5075844;28;19955;-80
2020/12/23 11:19:09;;;;;;;;;;;;;;;-144.28;100.00;59960.28;5068432;28;19928;-80
2020/12/23 11:21:35;;;;;;;;;;;;;;;-144.28;100.00;59960.28;5069085;28;19960;-79
2020/12/23 11:24:01;;;;;;;;;;;;;;;-144.28;100.00;59960.28;5071325;28;19932;-80
2020/12/23 11:26:28;;;;;;;;;;;;;;;-144.28;100.00;59960.28;5071892;28;19972;-80
2020/12/23 11:28:55;;;;;;;;;;;;;;;-144.28;100.00;59960.28;5074677;28;19924;-77
2020/12/23 11:31:22;;;;;;;;;;;;;;;-144.28;100.00;59960.28;5071007;28;19935;-80
2020/12/23 11:33:48;;;;;;;;;;;;;;;-144.28;100.00;59960.28;5066612;28;19924;-79
2020/12/23 11:36:15;;;;;;;;;;;;;;;-144.28;100.00;59960.28;5077218;28;19967;-80
2020/12/23 11:38:41;;;;;;;;;;;;;;;-144.28;100.00;59960.28;5063429;28;19960;-78
2020/12/23 11:41:09;;;;;;;;;;;;;;;-144.28;100.00;59960.28;5045001;28;20636;-78
2020/12/23 11:43:36;;;;;;;;;;;;;;;-144.28;100.00;59960.28;5083744;28;19924;-79
2020/12/23 11:46:03;;;;;;;;;;;;;;;-144.28;100.00;59960.28;5074456;28;19936;-79
2020/12/23 11:48:29;;;;;;;;;;;;;;;-144.28;100.00;59960.28;5073300;28;19991;-79
2020/12/23 11:50:56;;;;;;;;;;;;;;;-144.28;100.00;59960.28;5064553;28;20432;-79
2020/12/23 11:53:22;;;;;;;;;;;;;;;-144.28;100.00;59960.28;5063829;28;19925;-79
2020/12/23 11:55:48;;;;;;;;;;;;;;;-144.28;100.00;59960.28;5069991;28;20007;-78
2020/12/23 11:58:15;;;;;;;;;;;;;;;-144.28;100.00;59960.28;5062248;28;19929;-76
2020/12/23 12:00:41;;;;;;;;;;;;;;;-144.28;100.00;59960.28;5061897;28;20022;-79
2020/12/23 12:03:09;;;;;;;;;;;;;;;-144.28;100.00;59960.28;5062546;28;20437;-80
2020/12/23 12:05:35;;;;;;;;;;;;;;;-144.28;100.00;59960.28;5079437;28;19932;-79
2020/12/23 12:08:03;;;;;;;;;;;;;;;-144.28;100.00;59960.28;5071938;28;19925;-79
2020/12/23 12:10:29;;;;;;;;;;;;;;;-144.28;100.00;59960.28;5060978;28;19933;-81
2020/12/23 12:12:56;;;;;;;;;;;;;;;-144.28;100.00;59960.28;5068593;28;19929;-79
2020/12/23 12:15:25;;;;;;;;;;;;;;;-144.28;100.00;59960.28;5061506;28;19947;-79
2020/12/23 12:17:51;;;;;;;;;;;;;;;-144.28;100.00;59960.28;5078718;28;19925;-82